sensor_id;sensor_type;location;lat;lon;timestamp;P1;durP1;ratioP1;P2;durP2;ratioP2
18999;SDS011;9633;50.980;13.850;2024-03-29T00:00:05;0.80;;;0.70;;
18999;SDS011;9633;50.980;13.850;2024-03-29T00:01:42;1.97;;;0.90;;
18999;SDS011;9633;50.980;13.850;2024-03-29T00:03:14;1.40;;;0.93;;
18999;SDS011;9633;50.980;13.850;2024-03-29T00:04:45;1.63;;;0.80;;
18999;SDS011;9633;50.980;13.850;2024-03-29T00:06:19;1.27;;;0.70;;
18999;SDS011;9633;50.980;13.850;2024-03-29T00:07:50;0.70;;;0.60;;
18999;SDS011;9633;50.980;13.850;2024-03-29T00:09:22;2.90;;;0.70;;
18999;SDS011;9633;50.980;13.850;2024-03-29T00:10:53;1.20;;;0.70;;
18999;SDS011;9633;50.980;13.850;2024-03-29T00:12:25;1.70;;;0.70;;
18999;SDS011;9633;50.980;13.850;2024-03-29T00:13:57;1.43;;;0.70;;
18999;SDS011;9633;50.980;13.850;2024-03-29T00:15:28;0.97;;;0.70;;
18999;SDS011;9633;50.980;13.850;2024-03-29T00:17:00;1.40;;;0.70;;
18999;SDS011;9633;50.980;13.850;2024-03-29T00:18:31;1.90;;;0.90;;
18999;SDS011;9633;50.980;13.850;2024-03-29T00:20:03;2.40;;;0.80;;
18999;SDS011;9633;50.980;13.850;2024-03-29T00:21:37;1.80;;;0.70;;
18999;SDS011;9633;50.980;13.850;2024-03-29T00:23:08;1.10;;;0.80;;
18999;SDS011;9633;50.980;13.850;2024-03-29T00:24:40;0.97;;;0.70;;
18999;SDS011;9633;50.980;13.850;2024-03-29T00:26:11;2.57;;;0.90;;
18999;SDS011;9633;50.980;13.850;2024-03-29T00:27:42;1.03;;;0.70;;
18999;SDS011;9633;50.980;13.850;2024-03-29T00:29:14;1.47;;;0.70;;
18999;SDS011;9633;50.980;13.850;2024-03-29T00:30:46;1.53;;;0.87;;
18999;SDS011;9633;50.980;13.850;2024-03-29T00:32:17;1.33;;;0.70;;
18999;SDS011;9633;50.980;13.850;2024-03-29T00:33:48;0.90;;;0.60;;
18999;SDS011;9633;50.980;13.850;2024-03-29T00:35:20;0.87;;;0.70;;
18999;SDS011;9633;50.980;13.850;2024-03-29T00:36:53;1.13;;;0.80;;
18999;SDS011;9633;50.980;13.850;2024-03-29T00:38:24;1.67;;;0.80;;
18999;SDS011;9633;50.980;13.850;2024-03-29T00:39:56;0.87;;;0.67;;
18999;SDS011;9633;50.980;13.850;2024-03-29T00:41:27;2.13;;;1.03;;
18999;SDS011;9633;50.980;13.850;2024-03-29T00:42:58;1.17;;;0.70;;
18999;SDS011;9633;50.980;13.850;2024-03-29T00:44:30;1.70;;;0.70;;
18999;SDS011;9633;50.980;13.850;2024-03-29T00:46:01;1.63;;;0.60;;
18999;SDS011;9633;50.980;13.850;2024-03-29T00:47:33;1.87;;;0.80;;
18999;SDS011;9633;50.980;13.850;2024-03-29T00:49:05;1.83;;;1.00;;
18999;SDS011;9633;50.980;13.850;2024-03-29T00:50:36;1.13;;;1.03;;
18999;SDS011;9633;50.980;13.850;2024-03-29T00:52:09;2.13;;;1.33;;
18999;SDS011;9633;50.980;13.850;2024-03-29T00:53:41;2.73;;;1.50;;
18999;SDS011;9633;50.980;13.850;2024-03-29T00:55:12;2.00;;;1.10;;
18999;SDS011;9633;50.980;13.850;2024-03-29T00:56:44;1.67;;;1.10;;
18999;SDS011;9633;50.980;13.850;2024-03-29T00:58:15;2.93;;;1.40;;
18999;SDS011;9633;50.980;13.850;2024-03-29T00:59:47;3.50;;;2.43;;
18999;SDS011;9633;50.980;13.850;2024-03-29T01:01:18;3.63;;;2.70;;
18999;SDS011;9633;50.980;13.850;2024-03-29T01:02:50;5.67;;;3.10;;
18999;SDS011;9633;50.980;13.850;2024-03-29T01:04:21;3.53;;;2.00;;
18999;SDS011;9633;50.980;13.850;2024-03-29T01:05:53;3.00;;;1.60;;
18999;SDS011;9633;50.980;13.850;2024-03-29T01:07:25;3.93;;;2.37;;
18999;SDS011;9633;50.980;13.850;2024-03-29T01:08:57;4.20;;;2.33;;
18999;SDS011;9633;50.980;13.850;2024-03-29T01:10:28;2.53;;;1.93;;
18999;SDS011;9633;50.980;13.850;2024-03-29T01:12:00;5.97;;;2.40;;
18999;SDS011;9633;50.980;13.850;2024-03-29T01:13:31;3.70;;;2.20;;
18999;SDS011;9633;50.980;13.850;2024-03-29T01:15:03;4.67;;;2.40;;
18999;SDS011;9633;50.980;13.850;2024-03-29T01:16:34;2.90;;;2.40;;
18999;SDS011;9633;50.980;13.850;2024-03-29T01:18:06;4.23;;;2.63;;
18999;SDS011;9633;50.980;13.850;2024-03-29T01:19:37;2.60;;;2.30;;
18999;SDS011;9633;50.980;13.850;2024-03-29T01:21:09;5.20;;;2.30;;
18999;SDS011;9633;50.980;13.850;2024-03-29T01:22:42;5.07;;;2.93;;
18999;SDS011;9633;50.980;13.850;2024-03-29T01:24:13;3.97;;;2.53;;
18999;SDS011;9633;50.980;13.850;2024-03-29T01:25:44;3.83;;;2.67;;
18999;SDS011;9633;50.980;13.850;2024-03-29T01:27:16;4.30;;;3.00;;
18999;SDS011;9633;50.980;13.850;2024-03-29T01:28:47;6.27;;;3.00;;
18999;SDS011;9633;50.980;13.850;2024-03-29T01:30:19;5.20;;;3.37;;
18999;SDS011;9633;50.980;13.850;2024-03-29T01:31:50;3.67;;;2.70;;
18999;SDS011;9633;50.980;13.850;2024-03-29T01:33:22;5.43;;;3.23;;
18999;SDS011;9633;50.980;13.850;2024-03-29T01:34:53;4.67;;;3.00;;
18999;SDS011;9633;50.980;13.850;2024-03-29T01:36:25;5.10;;;3.17;;
18999;SDS011;9633;50.980;13.850;2024-03-29T01:37:58;5.60;;;3.03;;
18999;SDS011;9633;50.980;13.850;2024-03-29T01:39:29;4.30;;;2.73;;
18999;SDS011;9633;50.980;13.850;2024-03-29T01:41:01;4.43;;;2.70;;
18999;SDS011;9633;50.980;13.850;2024-03-29T01:42:33;4.23;;;2.80;;
18999;SDS011;9633;50.980;13.850;2024-03-29T01:44:04;4.23;;;2.67;;
18999;SDS011;9633;50.980;13.850;2024-03-29T01:45:38;5.63;;;3.07;;
18999;SDS011;9633;50.980;13.850;2024-03-29T01:47:10;3.37;;;2.77;;
18999;SDS011;9633;50.980;13.850;2024-03-29T01:48:42;5.40;;;3.10;;
18999;SDS011;9633;50.980;13.850;2024-03-29T01:50:14;4.30;;;2.97;;
18999;SDS011;9633;50.980;13.850;2024-03-29T01:51:46;3.13;;;2.70;;
18999;SDS011;9633;50.980;13.850;2024-03-29T01:53:20;5.00;;;2.70;;
18999;SDS011;9633;50.980;13.850;2024-03-29T01:54:52;4.90;;;2.50;;
18999;SDS011;9633;50.980;13.850;2024-03-29T01:56:24;6.17;;;2.80;;
18999;SDS011;9633;50.980;13.850;2024-03-29T01:57:56;4.07;;;2.57;;
18999;SDS011;9633;50.980;13.850;2024-03-29T01:59:30;3.67;;;2.57;;
18999;SDS011;9633;50.980;13.850;2024-03-29T02:01:02;5.73;;;2.37;;
18999;SDS011;9633;50.980;13.850;2024-03-29T02:02:36;5.53;;;2.20;;
18999;SDS011;9633;50.980;13.850;2024-03-29T02:04:08;5.10;;;2.30;;
18999;SDS011;9633;50.980;13.850;2024-03-29T02:05:40;3.57;;;2.40;;
18999;SDS011;9633;50.980;13.850;2024-03-29T02:07:12;3.80;;;2.20;;
18999;SDS011;9633;50.980;13.850;2024-03-29T02:08:46;4.27;;;1.63;;
18999;SDS011;9633;50.980;13.850;2024-03-29T02:10:20;3.90;;;2.00;;
18999;SDS011;9633;50.980;13.850;2024-03-29T02:11:53;3.50;;;1.80;;
18999;SDS011;9633;50.980;13.850;2024-03-29T02:13:24;4.13;;;1.77;;
18999;SDS011;9633;50.980;13.850;2024-03-29T02:14:56;3.80;;;1.80;;
18999;SDS011;9633;50.980;13.850;2024-03-29T02:16:28;2.23;;;1.83;;
18999;SDS011;9633;50.980;13.850;2024-03-29T02:18:01;1.77;;;1.47;;
18999;SDS011;9633;50.980;13.850;2024-03-29T02:19:32;2.83;;;1.50;;
18999;SDS011;9633;50.980;13.850;2024-03-29T02:21:05;2.90;;;1.60;;
18999;SDS011;9633;50.980;13.850;2024-03-29T02:22:36;4.13;;;1.60;;
18999;SDS011;9633;50.980;13.850;2024-03-29T02:24:12;3.17;;;1.80;;
18999;SDS011;9633;50.980;13.850;2024-03-29T02:25:46;3.13;;;1.90;;
18999;SDS011;9633;50.980;13.850;2024-03-29T02:27:19;3.33;;;1.70;;
18999;SDS011;9633;50.980;13.850;2024-03-29T02:28:51;2.93;;;2.07;;
18999;SDS011;9633;50.980;13.850;2024-03-29T02:30:23;2.93;;;2.20;;
18999;SDS011;9633;50.980;13.850;2024-03-29T02:31:55;2.13;;;1.77;;
18999;SDS011;9633;50.980;13.850;2024-03-29T02:33:27;3.03;;;2.00;;
18999;SDS011;9633;50.980;13.850;2024-03-29T02:34:59;2.63;;;1.93;;
18999;SDS011;9633;50.980;13.850;2024-03-29T02:36:31;3.03;;;2.10;;
18999;SDS011;9633;50.980;13.850;2024-03-29T02:38:02;3.40;;;2.07;;
18999;SDS011;9633;50.980;13.850;2024-03-29T02:39:36;3.63;;;2.20;;
18999;SDS011;9633;50.980;13.850;2024-03-29T02:41:08;4.70;;;2.10;;
18999;SDS011;9633;50.980;13.850;2024-03-29T02:42:40;3.80;;;2.00;;
18999;SDS011;9633;50.980;13.850;2024-03-29T02:44:12;4.13;;;2.00;;
18999;SDS011;9633;50.980;13.850;2024-03-29T02:45:46;5.80;;;2.30;;
18999;SDS011;9633;50.980;13.850;2024-03-29T02:47:17;4.03;;;2.10;;
18999;SDS011;9633;50.980;13.850;2024-03-29T02:48:50;2.93;;;1.87;;
18999;SDS011;9633;50.980;13.850;2024-03-29T02:50:21;4.23;;;2.33;;
18999;SDS011;9633;50.980;13.850;2024-03-29T02:51:52;3.63;;;2.13;;
18999;SDS011;9633;50.980;13.850;2024-03-29T02:53:25;3.00;;;1.80;;
18999;SDS011;9633;50.980;13.850;2024-03-29T02:55:00;4.80;;;2.30;;
18999;SDS011;9633;50.980;13.850;2024-03-29T02:56:33;3.93;;;2.00;;
18999;SDS011;9633;50.980;13.850;2024-03-29T02:58:04;3.77;;;2.30;;
18999;SDS011;9633;50.980;13.850;2024-03-29T02:59:36;6.37;;;3.10;;
18999;SDS011;9633;50.980;13.850;2024-03-29T03:01:08;6.67;;;3.00;;
18999;SDS011;9633;50.980;13.850;2024-03-29T03:02:40;6.83;;;2.80;;
18999;SDS011;9633;50.980;13.850;2024-03-29T03:04:12;5.13;;;2.83;;
18999;SDS011;9633;50.980;13.850;2024-03-29T03:05:44;7.00;;;3.10;;
18999;SDS011;9633;50.980;13.850;2024-03-29T03:07:15;4.83;;;3.10;;
18999;SDS011;9633;50.980;13.850;2024-03-29T03:09:05;3.07;;;2.50;;
18999;SDS011;9633;50.980;13.850;2024-03-29T03:10:56;4.93;;;3.03;;
18999;SDS011;9633;50.980;13.850;2024-03-29T03:12:30;5.47;;;2.47;;
18999;SDS011;9633;50.980;13.850;2024-03-29T03:14:01;3.83;;;2.80;;
18999;SDS011;9633;50.980;13.850;2024-03-29T03:15:34;5.00;;;3.00;;
18999;SDS011;9633;50.980;13.850;2024-03-29T03:17:05;6.23;;;2.97;;
18999;SDS011;9633;50.980;13.850;2024-03-29T03:18:38;4.37;;;2.70;;
18999;SDS011;9633;50.980;13.850;2024-03-29T03:20:09;5.03;;;3.00;;
18999;SDS011;9633;50.980;13.850;2024-03-29T03:21:43;4.63;;;2.97;;
18999;SDS011;9633;50.980;13.850;2024-03-29T03:23:16;4.10;;;2.53;;
18999;SDS011;9633;50.980;13.850;2024-03-29T03:24:47;3.63;;;2.40;;
18999;SDS011;9633;50.980;13.850;2024-03-29T03:26:21;3.90;;;2.73;;
18999;SDS011;9633;50.980;13.850;2024-03-29T03:27:52;3.90;;;2.57;;
18999;SDS011;9633;50.980;13.850;2024-03-29T03:29:24;6.47;;;3.07;;
18999;SDS011;9633;50.980;13.850;2024-03-29T03:30:56;5.43;;;2.70;;
18999;SDS011;9633;50.980;13.850;2024-03-29T03:32:27;3.97;;;2.50;;
18999;SDS011;9633;50.980;13.850;2024-03-29T03:33:59;3.77;;;2.37;;
18999;SDS011;9633;50.980;13.850;2024-03-29T03:35:31;4.97;;;2.60;;
18999;SDS011;9633;50.980;13.850;2024-03-29T03:37:03;5.50;;;2.97;;
18999;SDS011;9633;50.980;13.850;2024-03-29T03:38:35;4.47;;;2.77;;
18999;SDS011;9633;50.980;13.850;2024-03-29T03:40:09;5.93;;;2.53;;
18999;SDS011;9633;50.980;13.850;2024-03-29T03:41:42;3.17;;;2.40;;
18999;SDS011;9633;50.980;13.850;2024-03-29T03:43:13;4.30;;;2.40;;
18999;SDS011;9633;50.980;13.850;2024-03-29T03:44:45;4.40;;;2.53;;
18999;SDS011;9633;50.980;13.850;2024-03-29T03:46:17;4.43;;;2.50;;
18999;SDS011;9633;50.980;13.850;2024-03-29T03:47:49;5.20;;;2.60;;
18999;SDS011;9633;50.980;13.850;2024-03-29T03:49:21;3.50;;;2.37;;
18999;SDS011;9633;50.980;13.850;2024-03-29T03:50:52;2.83;;;2.10;;
18999;SDS011;9633;50.980;13.850;2024-03-29T03:52:25;4.73;;;2.20;;
18999;SDS011;9633;50.980;13.850;2024-03-29T03:53:56;4.57;;;2.57;;
18999;SDS011;9633;50.980;13.850;2024-03-29T03:55:27;3.47;;;2.37;;
18999;SDS011;9633;50.980;13.850;2024-03-29T03:57:01;5.33;;;2.13;;
18999;SDS011;9633;50.980;13.850;2024-03-29T03:58:33;4.17;;;2.30;;
18999;SDS011;9633;50.980;13.850;2024-03-29T04:00:05;4.87;;;2.50;;
18999;SDS011;9633;50.980;13.850;2024-03-29T04:01:42;5.47;;;2.37;;
18999;SDS011;9633;50.980;13.850;2024-03-29T04:03:13;2.77;;;2.20;;
18999;SDS011;9633;50.980;13.850;2024-03-29T04:04:46;4.03;;;2.20;;
18999;SDS011;9633;50.980;13.850;2024-03-29T04:06:19;4.50;;;2.20;;
18999;SDS011;9633;50.980;13.850;2024-03-29T04:07:50;4.13;;;2.30;;
18999;SDS011;9633;50.980;13.850;2024-03-29T04:09:21;3.63;;;2.00;;
18999;SDS011;9633;50.980;13.850;2024-03-29T04:10:54;5.17;;;2.13;;
18999;SDS011;9633;50.980;13.850;2024-03-29T04:12:26;3.93;;;2.03;;
18999;SDS011;9633;50.980;13.850;2024-03-29T04:13:58;3.13;;;2.00;;
18999;SDS011;9633;50.980;13.850;2024-03-29T04:15:30;2.93;;;1.77;;
18999;SDS011;9633;50.980;13.850;2024-03-29T04:17:03;5.57;;;2.40;;
18999;SDS011;9633;50.980;13.850;2024-03-29T04:18:34;3.00;;;1.80;;
18999;SDS011;9633;50.980;13.850;2024-03-29T04:20:07;3.83;;;1.93;;
18999;SDS011;9633;50.980;13.850;2024-03-29T04:21:38;2.10;;;1.90;;
18999;SDS011;9633;50.980;13.850;2024-03-29T04:23:10;3.30;;;2.03;;
18999;SDS011;9633;50.980;13.850;2024-03-29T04:24:42;3.10;;;2.10;;
18999;SDS011;9633;50.980;13.850;2024-03-29T04:26:14;4.20;;;2.00;;
18999;SDS011;9633;50.980;13.850;2024-03-29T04:27:46;2.87;;;1.90;;
18999;SDS011;9633;50.980;13.850;2024-03-29T04:29:19;2.97;;;1.80;;
18999;SDS011;9633;50.980;13.850;2024-03-29T04:30:51;3.77;;;2.00;;
18999;SDS011;9633;50.980;13.850;2024-03-29T04:32:22;2.40;;;1.60;;
18999;SDS011;9633;50.980;13.850;2024-03-29T04:33:55;3.90;;;2.00;;
18999;SDS011;9633;50.980;13.850;2024-03-29T04:35:26;4.03;;;2.23;;
18999;SDS011;9633;50.980;13.850;2024-03-29T04:36:58;2.83;;;2.00;;
18999;SDS011;9633;50.980;13.850;2024-03-29T04:38:31;4.20;;;2.03;;
18999;SDS011;9633;50.980;13.850;2024-03-29T04:40:02;3.57;;;2.30;;
18999;SDS011;9633;50.980;13.850;2024-03-29T04:41:36;3.53;;;2.00;;
18999;SDS011;9633;50.980;13.850;2024-03-29T04:43:09;4.07;;;2.33;;
18999;SDS011;9633;50.980;13.850;2024-03-29T04:44:41;3.73;;;2.23;;
18999;SDS011;9633;50.980;13.850;2024-03-29T04:46:13;2.30;;;1.80;;
18999;SDS011;9633;50.980;13.850;2024-03-29T04:47:46;3.33;;;2.10;;
18999;SDS011;9633;50.980;13.850;2024-03-29T04:49:18;2.90;;;2.10;;
18999;SDS011;9633;50.980;13.850;2024-03-29T04:50:52;3.00;;;2.00;;
18999;SDS011;9633;50.980;13.850;2024-03-29T04:52:24;2.10;;;1.77;;
18999;SDS011;9633;50.980;13.850;2024-03-29T04:53:56;3.20;;;2.00;;
18999;SDS011;9633;50.980;13.850;2024-03-29T04:55:28;4.27;;;1.80;;
18999;SDS011;9633;50.980;13.850;2024-03-29T04:57:00;4.97;;;2.00;;
18999;SDS011;9633;50.980;13.850;2024-03-29T04:58:33;2.77;;;1.77;;
18999;SDS011;9633;50.980;13.850;2024-03-29T05:00:06;3.90;;;1.97;;
18999;SDS011;9633;50.980;13.850;2024-03-29T05:01:39;3.43;;;2.10;;
18999;SDS011;9633;50.980;13.850;2024-03-29T05:03:13;2.70;;;1.83;;
18999;SDS011;9633;50.980;13.850;2024-03-29T05:04:45;3.87;;;1.87;;
18999;SDS011;9633;50.980;13.850;2024-03-29T05:06:17;2.87;;;1.90;;
18999;SDS011;9633;50.980;13.850;2024-03-29T05:07:48;2.63;;;1.80;;
18999;SDS011;9633;50.980;13.850;2024-03-29T05:09:21;2.90;;;2.10;;
18999;SDS011;9633;50.980;13.850;2024-03-29T05:10:52;3.27;;;2.10;;
18999;SDS011;9633;50.980;13.850;2024-03-29T05:12:25;3.30;;;1.80;;
18999;SDS011;9633;50.980;13.850;2024-03-29T05:13:58;3.57;;;1.90;;
18999;SDS011;9633;50.980;13.850;2024-03-29T05:15:31;3.63;;;1.70;;
18999;SDS011;9633;50.980;13.850;2024-03-29T05:17:02;1.80;;;1.50;;
18999;SDS011;9633;50.980;13.850;2024-03-29T05:18:35;2.77;;;1.63;;
18999;SDS011;9633;50.980;13.850;2024-03-29T05:20:06;2.47;;;1.60;;
18999;SDS011;9633;50.980;13.850;2024-03-29T05:21:39;2.50;;;1.70;;
18999;SDS011;9633;50.980;13.850;2024-03-29T05:23:11;1.73;;;1.50;;
18999;SDS011;9633;50.980;13.850;2024-03-29T05:24:44;2.33;;;1.70;;
18999;SDS011;9633;50.980;13.850;2024-03-29T05:26:16;1.23;;;1.13;;
18999;SDS011;9633;50.980;13.850;2024-03-29T05:27:48;3.23;;;1.37;;
18999;SDS011;9633;50.980;13.850;2024-03-29T05:29:21;2.10;;;1.27;;
18999;SDS011;9633;50.980;13.850;2024-03-29T05:30:53;1.80;;;1.40;;
18999;SDS011;9633;50.980;13.850;2024-03-29T05:32:24;3.53;;;1.97;;
18999;SDS011;9633;50.980;13.850;2024-03-29T05:33:58;2.87;;;1.60;;
18999;SDS011;9633;50.980;13.850;2024-03-29T05:35:31;3.33;;;1.50;;
18999;SDS011;9633;50.980;13.850;2024-03-29T05:37:03;2.50;;;1.70;;
18999;SDS011;9633;50.980;13.850;2024-03-29T05:38:35;3.27;;;1.50;;
18999;SDS011;9633;50.980;13.850;2024-03-29T05:40:08;2.10;;;1.50;;
18999;SDS011;9633;50.980;13.850;2024-03-29T05:41:39;3.73;;;1.80;;
18999;SDS011;9633;50.980;13.850;2024-03-29T05:43:12;3.00;;;1.47;;
18999;SDS011;9633;50.980;13.850;2024-03-29T05:44:45;2.33;;;1.70;;
18999;SDS011;9633;50.980;13.850;2024-03-29T05:46:17;2.73;;;1.90;;
18999;SDS011;9633;50.980;13.850;2024-03-29T05:47:49;4.30;;;1.73;;
18999;SDS011;9633;50.980;13.850;2024-03-29T05:49:21;2.67;;;2.00;;
18999;SDS011;9633;50.980;13.850;2024-03-29T05:50:53;4.10;;;1.80;;
18999;SDS011;9633;50.980;13.850;2024-03-29T05:52:25;2.47;;;1.70;;
18999;SDS011;9633;50.980;13.850;2024-03-29T05:53:56;3.67;;;1.80;;
18999;SDS011;9633;50.980;13.850;2024-03-29T05:55:29;3.90;;;1.50;;
18999;SDS011;9633;50.980;13.850;2024-03-29T05:57:00;2.70;;;1.60;;
18999;SDS011;9633;50.980;13.850;2024-03-29T05:58:33;1.93;;;1.47;;
18999;SDS011;9633;50.980;13.850;2024-03-29T06:00:07;3.87;;;1.80;;
18999;SDS011;9633;50.980;13.850;2024-03-29T06:01:40;2.57;;;1.70;;
18999;SDS011;9633;50.980;13.850;2024-03-29T06:03:12;2.77;;;1.60;;
18999;SDS011;9633;50.980;13.850;2024-03-29T06:04:44;4.17;;;1.63;;
18999;SDS011;9633;50.980;13.850;2024-03-29T06:06:18;1.87;;;1.53;;
18999;SDS011;9633;50.980;13.850;2024-03-29T06:07:54;2.00;;;1.73;;
18999;SDS011;9633;50.980;13.850;2024-03-29T06:09:25;2.80;;;1.63;;
18999;SDS011;9633;50.980;13.850;2024-03-29T06:10:58;3.47;;;1.80;;
18999;SDS011;9633;50.980;13.850;2024-03-29T06:12:29;1.93;;;1.80;;
18999;SDS011;9633;50.980;13.850;2024-03-29T06:14:02;3.07;;;1.70;;
18999;SDS011;9633;50.980;13.850;2024-03-29T06:15:54;2.33;;;1.37;;
18999;SDS011;9633;50.980;13.850;2024-03-29T06:17:43;1.80;;;1.40;;
18999;SDS011;9633;50.980;13.850;2024-03-29T06:19:16;1.80;;;1.10;;
18999;SDS011;9633;50.980;13.850;2024-03-29T06:20:48;1.87;;;1.30;;
18999;SDS011;9633;50.980;13.850;2024-03-29T06:22:20;2.73;;;1.13;;
18999;SDS011;9633;50.980;13.850;2024-03-29T06:23:51;2.53;;;1.43;;
18999;SDS011;9633;50.980;13.850;2024-03-29T06:25:24;1.57;;;1.00;;
18999;SDS011;9633;50.980;13.850;2024-03-29T06:26:55;3.03;;;1.47;;
18999;SDS011;9633;50.980;13.850;2024-03-29T06:28:28;2.40;;;1.20;;
18999;SDS011;9633;50.980;13.850;2024-03-29T06:29:59;1.77;;;1.13;;
18999;SDS011;9633;50.980;13.850;2024-03-29T06:31:33;2.57;;;1.27;;
18999;SDS011;9633;50.980;13.850;2024-03-29T06:33:06;2.10;;;1.10;;
18999;SDS011;9633;50.980;13.850;2024-03-29T06:34:38;2.80;;;1.23;;
18999;SDS011;9633;50.980;13.850;2024-03-29T06:36:10;3.47;;;1.13;;
18999;SDS011;9633;50.980;13.850;2024-03-29T06:37:42;2.40;;;1.30;;
18999;SDS011;9633;50.980;13.850;2024-03-29T06:39:14;3.23;;;1.20;;
18999;SDS011;9633;50.980;13.850;2024-03-29T06:40:45;1.47;;;1.23;;
18999;SDS011;9633;50.980;13.850;2024-03-29T06:42:18;1.60;;;1.10;;
18999;SDS011;9633;50.980;13.850;2024-03-29T06:43:49;2.30;;;1.20;;
18999;SDS011;9633;50.980;13.850;2024-03-29T06:45:22;2.03;;;1.20;;
18999;SDS011;9633;50.980;13.850;2024-03-29T06:46:54;1.40;;;1.10;;
18999;SDS011;9633;50.980;13.850;2024-03-29T06:48:27;2.93;;;1.17;;
18999;SDS011;9633;50.980;13.850;2024-03-29T06:49:58;2.20;;;1.40;;
18999;SDS011;9633;50.980;13.850;2024-03-29T06:51:31;2.30;;;1.30;;
18999;SDS011;9633;50.980;13.850;2024-03-29T06:53:02;1.97;;;1.10;;
18999;SDS011;9633;50.980;13.850;2024-03-29T06:54:35;1.40;;;1.30;;
18999;SDS011;9633;50.980;13.850;2024-03-29T06:56:06;4.20;;;1.40;;
18999;SDS011;9633;50.980;13.850;2024-03-29T06:57:39;1.43;;;1.20;;
18999;SDS011;9633;50.980;13.850;2024-03-29T06:59:12;2.30;;;1.33;;
18999;SDS011;9633;50.980;13.850;2024-03-29T07:00:45;1.63;;;1.20;;
18999;SDS011;9633;50.980;13.850;2024-03-29T07:02:20;1.47;;;1.37;;
18999;SDS011;9633;50.980;13.850;2024-03-29T07:03:52;2.17;;;1.50;;
18999;SDS011;9633;50.980;13.850;2024-03-29T07:05:24;1.87;;;1.40;;
18999;SDS011;9633;50.980;13.850;2024-03-29T07:06:55;1.57;;;1.37;;
18999;SDS011;9633;50.980;13.850;2024-03-29T07:08:28;2.07;;;1.30;;
18999;SDS011;9633;50.980;13.850;2024-03-29T07:09:59;1.87;;;1.30;;
18999;SDS011;9633;50.980;13.850;2024-03-29T07:11:32;1.70;;;1.30;;
18999;SDS011;9633;50.980;13.850;2024-03-29T07:13:03;2.43;;;1.20;;
18999;SDS011;9633;50.980;13.850;2024-03-29T07:14:36;2.40;;;1.20;;
18999;SDS011;9633;50.980;13.850;2024-03-29T07:16:08;3.10;;;1.50;;
18999;SDS011;9633;50.980;13.850;2024-03-29T07:17:41;1.10;;;1.00;;
18999;SDS011;9633;50.980;13.850;2024-03-29T07:19:14;1.83;;;1.30;;
18999;SDS011;9633;50.980;13.850;2024-03-29T07:20:46;3.30;;;1.27;;
18999;SDS011;9633;50.980;13.850;2024-03-29T07:22:18;2.83;;;1.63;;
18999;SDS011;9633;50.980;13.850;2024-03-29T07:23:51;1.93;;;1.37;;
18999;SDS011;9633;50.980;13.850;2024-03-29T07:25:22;1.87;;;1.20;;
18999;SDS011;9633;50.980;13.850;2024-03-29T07:26:56;1.57;;;1.20;;
18999;SDS011;9633;50.980;13.850;2024-03-29T07:28:29;3.20;;;1.30;;
18999;SDS011;9633;50.980;13.850;2024-03-29T07:30:00;2.67;;;1.13;;
18999;SDS011;9633;50.980;13.850;2024-03-29T07:31:34;1.43;;;1.20;;
18999;SDS011;9633;50.980;13.850;2024-03-29T07:33:07;3.83;;;1.57;;
18999;SDS011;9633;50.980;13.850;2024-03-29T07:34:40;2.00;;;1.20;;
18999;SDS011;9633;50.980;13.850;2024-03-29T07:36:12;2.30;;;1.20;;
18999;SDS011;9633;50.980;13.850;2024-03-29T07:37:44;3.67;;;1.30;;
18999;SDS011;9633;50.980;13.850;2024-03-29T07:39:19;1.87;;;1.40;;
18999;SDS011;9633;50.980;13.850;2024-03-29T07:40:51;2.03;;;1.30;;
18999;SDS011;9633;50.980;13.850;2024-03-29T07:42:25;1.63;;;1.10;;
18999;SDS011;9633;50.980;13.850;2024-03-29T07:43:57;2.43;;;1.17;;
18999;SDS011;9633;50.980;13.850;2024-03-29T07:45:30;3.60;;;1.60;;
18999;SDS011;9633;50.980;13.850;2024-03-29T07:47:02;2.87;;;1.30;;
18999;SDS011;9633;50.980;13.850;2024-03-29T07:48:36;2.77;;;1.30;;
18999;SDS011;9633;50.980;13.850;2024-03-29T07:50:08;1.47;;;1.33;;
18999;SDS011;9633;50.980;13.850;2024-03-29T07:51:40;1.73;;;1.13;;
18999;SDS011;9633;50.980;13.850;2024-03-29T07:53:12;2.37;;;1.40;;
18999;SDS011;9633;50.980;13.850;2024-03-29T07:54:44;2.13;;;1.20;;
18999;SDS011;9633;50.980;13.850;2024-03-29T07:56:16;2.10;;;1.50;;
18999;SDS011;9633;50.980;13.850;2024-03-29T07:57:48;2.00;;;1.20;;
18999;SDS011;9633;50.980;13.850;2024-03-29T07:59:20;2.80;;;1.40;;
18999;SDS011;9633;50.980;13.850;2024-03-29T08:00:53;2.37;;;1.23;;
18999;SDS011;9633;50.980;13.850;2024-03-29T08:02:25;2.93;;;1.40;;
18999;SDS011;9633;50.980;13.850;2024-03-29T08:03:58;2.20;;;1.47;;
18999;SDS011;9633;50.980;13.850;2024-03-29T08:05:30;2.80;;;1.67;;
18999;SDS011;9633;50.980;13.850;2024-03-29T08:07:02;1.53;;;1.10;;
18999;SDS011;9633;50.980;13.850;2024-03-29T08:08:34;3.07;;;1.40;;
18999;SDS011;9633;50.980;13.850;2024-03-29T08:10:06;2.07;;;1.30;;
18999;SDS011;9633;50.980;13.850;2024-03-29T08:11:39;1.57;;;1.20;;
18999;SDS011;9633;50.980;13.850;2024-03-29T08:13:10;3.17;;;1.40;;
18999;SDS011;9633;50.980;13.850;2024-03-29T08:14:45;2.20;;;1.40;;
18999;SDS011;9633;50.980;13.850;2024-03-29T08:16:17;2.83;;;1.40;;
18999;SDS011;9633;50.980;13.850;2024-03-29T08:17:50;2.23;;;1.30;;
18999;SDS011;9633;50.980;13.850;2024-03-29T08:19:22;2.00;;;1.07;;
18999;SDS011;9633;50.980;13.850;2024-03-29T08:20:55;1.87;;;1.30;;
18999;SDS011;9633;50.980;13.850;2024-03-29T08:22:26;1.90;;;1.30;;
18999;SDS011;9633;50.980;13.850;2024-03-29T08:23:59;1.93;;;1.20;;
18999;SDS011;9633;50.980;13.850;2024-03-29T08:25:31;1.83;;;1.23;;
18999;SDS011;9633;50.980;13.850;2024-03-29T08:27:03;2.73;;;1.53;;
18999;SDS011;9633;50.980;13.850;2024-03-29T08:28:35;2.97;;;1.50;;
18999;SDS011;9633;50.980;13.850;2024-03-29T08:30:08;3.00;;;1.40;;
18999;SDS011;9633;50.980;13.850;2024-03-29T08:31:39;2.53;;;1.40;;
18999;SDS011;9633;50.980;13.850;2024-03-29T08:33:12;2.13;;;1.40;;
18999;SDS011;9633;50.980;13.850;2024-03-29T08:34:45;1.23;;;0.87;;
18999;SDS011;9633;50.980;13.850;2024-03-29T08:36:17;2.80;;;1.00;;
18999;SDS011;9633;50.980;13.850;2024-03-29T08:37:49;1.37;;;0.90;;
18999;SDS011;9633;50.980;13.850;2024-03-29T08:39:22;1.47;;;0.90;;
18999;SDS011;9633;50.980;13.850;2024-03-29T08:40:53;1.73;;;0.70;;
18999;SDS011;9633;50.980;13.850;2024-03-29T08:42:25;1.63;;;0.70;;
18999;SDS011;9633;50.980;13.850;2024-03-29T08:43:57;0.77;;;0.70;;
18999;SDS011;9633;50.980;13.850;2024-03-29T08:45:29;3.97;;;0.87;;
18999;SDS011;9633;50.980;13.850;2024-03-29T08:47:00;1.27;;;0.77;;
18999;SDS011;9633;50.980;13.850;2024-03-29T08:48:33;3.20;;;0.90;;
18999;SDS011;9633;50.980;13.850;2024-03-29T08:50:06;1.63;;;0.60;;
18999;SDS011;9633;50.980;13.850;2024-03-29T08:51:39;1.47;;;0.90;;
18999;SDS011;9633;50.980;13.850;2024-03-29T08:53:10;1.40;;;0.83;;
18999;SDS011;9633;50.980;13.850;2024-03-29T08:54:42;2.07;;;0.80;;
18999;SDS011;9633;50.980;13.850;2024-03-29T08:56:15;1.43;;;1.10;;
18999;SDS011;9633;50.980;13.850;2024-03-29T08:57:47;1.60;;;0.83;;
18999;SDS011;9633;50.980;13.850;2024-03-29T08:59:19;1.47;;;0.80;;
18999;SDS011;9633;50.980;13.850;2024-03-29T09:00:54;2.87;;;0.70;;
18999;SDS011;9633;50.980;13.850;2024-03-29T09:02:26;1.57;;;1.03;;
18999;SDS011;9633;50.980;13.850;2024-03-29T09:03:58;1.60;;;1.00;;
18999;SDS011;9633;50.980;13.850;2024-03-29T09:05:31;1.50;;;0.80;;
18999;SDS011;9633;50.980;13.850;2024-03-29T09:07:04;4.17;;;0.97;;
18999;SDS011;9633;50.980;13.850;2024-03-29T09:08:36;3.00;;;0.90;;
18999;SDS011;9633;50.980;13.850;2024-03-29T09:10:08;2.27;;;0.97;;
18999;SDS011;9633;50.980;13.850;2024-03-29T09:11:39;1.67;;;0.90;;
18999;SDS011;9633;50.980;13.850;2024-03-29T09:13:12;1.47;;;0.93;;
18999;SDS011;9633;50.980;13.850;2024-03-29T09:14:43;1.77;;;0.93;;
18999;SDS011;9633;50.980;13.850;2024-03-29T09:16:16;2.70;;;1.03;;